Peoria, IL (61603)

9:52 AM CDT on August 27, 2014 (GMT -0500)
DracoPhyre PWS | Change Station
CLOSE
Current Station
Personal Weather Station
Location: Peoria, IL
Elevation: 640 ft
Nearby Weather Stations

Elev 640 ft 40.72 °N, 89.59 °W | Updated 2 seconds ago

Clear
Clear
79.5 °F
Feels Like 83 °F
N
0.0
Wind Variable Wind from West
Gusts 2.2 mph

Today
High -- | Low -- °F
--% Chance of Precip.
Yesterday
High -- | Low -- °F
Precip. -- in
6:20 AM 7:38 PM
Waxing Crescent, 4% visible
Pressure 30.12 in
Visibility 10.0 miles
Clouds Few 11000 ft
Heat Index 83 °F
Dew Point 73 °F
Humidity 80%
Rainfall 0.00 in
Snow Depth Not available.
UV 2 out of 12
Pollen 9.80 out of 12
Ozone Good
PM2.5 Good
Flu Activity Not available.
METAR KPIA 271354Z 10007KT 10SM FEW110 24/19 A3013 RMK AO2 SLP197 T02440194

More Conditions Fewer Conditions

Pressure 30.12 in
Visibility 10.0 miles
Clouds Few 11000 ft
Heat Index 83 °F
Dew Point 73 °F
Humidity 80%
Rainfall 0.00 in
Snow Depth Not available.
UV 2 out of 12
Pollen 9.80 out of 12
Ozone Good
PM2.5 Good
Flu Activity Not available.
METAR KPIA 271354Z 10007KT 10SM FEW110 24/19 A3013 RMK AO2 SLP197 T02440194

More Conditions Fewer Conditions

10-Day Weather Forecast

Almanac

Astronomy

Aug. 27, 2014 Rise Set
Actual Time 6:20 AM CDT 7:38 PM CDT
Civil Twilight 5:52 AM CDT 8:06 PM CDT
Nautical Twilight 5:17 AM CDT 8:40 PM CDT
Astronomical Twilight 4:41 AM CDT 9:16 PM CDT
Moon 8:17 AM CDT 8:29 PM CDT
Length of Visible Light 14h 14m
Length of Day
13h 17m
Tomorrow will be 2m 33s shorter.
Waxing Crescent, 4% of the Moon is Illuminated
Today
Waxing Crescent
Sep 2
First Quarter
Sep 8
Full
Sep 15
Last Quarter
Sep 24
New

Today's Extremes

State Highs State Lows

Community

WunderPhotos

Upload Photos

1,747,701 photos uploaded!

Nearby

Air Quality

  Air Quality AQ Index Pollutant
Yesterday Good
OZONE
Yesterday Good
PM2.5
Current Good
OZONE
Current Good
PM2.5
Wednesday Moderate
PM2.5

Snow Depth

Station Depth Elevation
No new snow has been reported.

Earthquake Activity

City Distance Mag. Time & Date
No recent earthquake activity has been reported nearby.
Minimum magnitude displayed is 2.5.

Coastal Water Temperatures

Place Temperature
No Stations Reporting

Nearby Weather Stations